Time;durP1;ratioP1;P1;durP2;ratioP2;P2;SDS_P1;SDS_P2;PMS_P1;PMS_P2;Temp;Humidity;BMP_temperature;BMP_pressure;BME280_temperature;BME280_humidity;BME280_pressure;Samples;Min_cycle;Max_cycle;Signal;HPM_P1;HPM_P2
2022/07/10 00:00:28;;;;;;;;;;;13.90;99.90;;;;;;5056691;28;19908;-67
2022/07/10 00:02:53;;;;;;;;;;;13.90;99.90;;;;;;5056658;28;19909;-67
2022/07/10 00:05:19;;;;;;;;;;;13.90;99.90;;;;;;5038739;28;19912;-67
2022/07/10 00:07:44;;;;;;;;;;;13.90;99.90;;;;;;5056785;28;20278;-66
2022/07/10 00:10:10;;;;;;;;;;;13.90;99.90;;;;;;5056411;28;20434;-66
2022/07/10 00:12:36;;;;;;;;;;;13.90;99.90;;;;;;5056716;28;19917;-66
2022/07/10 00:15:02;;;;;;;;;;;13.90;99.90;;;;;;5056400;28;20421;-67
2022/07/10 00:17:28;;;;;;;;;;;14.00;99.90;;;;;;5056403;28;19913;-67
2022/07/10 00:19:53;;;;;;;;;;;13.90;99.90;;;;;;5056300;28;19916;-66
2022/07/10 00:22:19;;;;;;;;;;;13.90;99.90;;;;;;5056518;28;20283;-67
2022/07/10 00:24:44;;;;;;;;;;;13.90;99.90;;;;;;5056224;28;19908;-67
2022/07/10 00:27:10;;;;;;;;;;;13.90;99.90;;;;;;5056413;28;19909;-67
2022/07/10 00:29:35;;;;;;;;;;;13.90;99.90;;;;;;5056064;28;20343;-67
2022/07/10 00:32:01;;;;;;;;;;;13.90;99.90;;;;;;5056333;28;19909;-67
2022/07/10 00:34:26;;;;;;;;;;;13.90;99.90;;;;;;5056157;28;19909;-66
2022/07/10 00:36:52;;;;;;;;;;;14.00;99.90;;;;;;5038124;28;20282;-66
2022/07/10 00:39:17;;;;;;;;;;;14.00;99.90;;;;;;5038131;28;19908;-67
2022/07/10 00:41:42;;;;;;;;;;;14.00;99.90;;;;;;5055901;28;19908;-66
2022/07/10 00:44:08;;;;;;;;;;;14.10;99.90;;;;;;5055872;28;19951;-66
2022/07/10 00:46:35;;;;;;;;;;;14.00;99.90;;;;;;5056079;28;19912;-67
2022/07/10 00:49:00;;;;;;;;;;;14.00;99.90;;;;;;5055685;28;19919;-67
2022/07/10 00:51:26;;;;;;;;;;;14.00;99.90;;;;;;5055729;28;19909;-66
2022/07/10 00:53:52;;;;;;;;;;;14.00;99.90;;;;;;5055694;28;19959;-67
2022/07/10 00:56:21;;;;;;;;;;;14.00;99.90;;;;;;5055889;28;19909;-66
2022/07/10 00:58:47;;;;;;;;;;;14.10;99.90;;;;;;5037318;28;20286;-67
2022/07/10 01:01:13;;;;;;;;;;;14.10;99.90;;;;;;5055779;28;19988;-66
2022/07/10 01:03:38;;;;;;;;;;;14.10;99.90;;;;;;5038022;28;19908;-66
2022/07/10 01:06:04;;;;;;;;;;;14.10;99.90;;;;;;5055746;28;19909;-67
2022/07/10 01:08:29;;;;;;;;;;;14.00;99.90;;;;;;5055382;28;19913;-66
2022/07/10 01:10:55;;;;;;;;;;;14.00;99.90;;;;;;5055255;28;19913;-67
2022/07/10 01:13:21;;;;;;;;;;;14.00;99.90;;;;;;5055550;28;19954;-66
2022/07/10 01:15:47;;;;;;;;;;;14.00;99.90;;;;;;5055303;28;19916;-66
2022/07/10 01:18:13;;;;;;;;;;;14.00;99.90;;;;;;5055512;28;19908;-67
2022/07/10 01:20:38;;;;;;;;;;;14.00;99.90;;;;;;5055159;28;19912;-66
2022/07/10 01:23:04;;;;;;;;;;;13.90;99.90;;;;;;5055359;28;19908;-67
2022/07/10 01:25:29;;;;;;;;;;;13.90;99.90;;;;;;5055103;28;19991;-66
2022/07/10 01:27:55;;;;;;;;;;;13.90;99.90;;;;;;5055281;28;19909;-66
2022/07/10 01:30:20;;;;;;;;;;;13.90;99.90;;;;;;5055309;28;19913;-67
2022/07/10 01:32:46;;;;;;;;;;;13.90;99.90;;;;;;5054946;28;20320;-67
2022/07/10 01:35:12;;;;;;;;;;;13.90;99.90;;;;;;5054900;28;19958;-66
2022/07/10 01:37:38;;;;;;;;;;;13.90;99.90;;;;;;5054865;28;19935;-66
2022/07/10 01:40:04;;;;;;;;;;;13.90;99.90;;;;;;5055075;28;19909;-67
2022/07/10 01:42:29;;;;;;;;;;;13.90;99.90;;;;;;5054713;28;20394;-67
2022/07/10 01:44:55;;;;;;;;;;;13.90;99.90;;;;;;5054698;28;19908;-66
2022/07/10 01:47:24;;;;;;;;;;;13.90;99.90;;;;;;5054671;28;19958;-67
2022/07/10 01:49:50;;;;;;;;;;;13.90;99.90;;;;;;5037203;28;20283;-67
2022/07/10 01:52:16;;;;;;;;;;;13.90;99.90;;;;;;5036629;28;19959;-66
2022/07/10 01:54:41;;;;;;;;;;;13.90;99.90;;;;;;5054507;28;19913;-66
2022/07/10 01:57:07;;;;;;;;;;;13.90;99.90;;;;;;5054479;28;19916;-66
2022/07/10 01:59:32;;;;;;;;;;;13.90;99.90;;;;;;5054390;28;19944;-66
2022/07/10 02:01:58;;;;;;;;;;;13.90;99.90;;;;;;5054444;28;19908;-66
2022/07/10 02:04:54;;;;;;;;;;;13.90;99.90;;;;;;5054359;28;19955;-66
2022/07/10 02:07:10;;;;;;;;;;;13.90;99.90;;;;;;5054125;28;19913;-66
2022/07/10 02:09:36;;;;;;;;;;;13.90;99.90;;;;;;5054097;28;19982;-66
2022/07/10 02:12:02;;;;;;;;;;;13.80;99.90;;;;;;5053382;28;20367;-66
2022/07/10 02:14:27;;;;;;;;;;;13.80;99.90;;;;;;5054430;28;19983;-66
2022/07/10 02:16:53;;;;;;;;;;;13.80;99.90;;;;;;5054106;28;19908;-66
2022/07/10 02:19:18;;;;;;;;;;;13.80;99.90;;;;;;5054300;28;19913;-66
2022/07/10 02:21:45;;;;;;;;;;;13.80;99.90;;;;;;5054016;28;19913;-66
2022/07/10 02:24:11;;;;;;;;;;;13.80;99.90;;;;;;5053979;28;19909;-66
2022/07/10 02:26:36;;;;;;;;;;;13.80;99.90;;;;;;5053956;28;19916;-66
2022/07/10 02:29:02;;;;;;;;;;;13.80;99.90;;;;;;5053827;28;20003;-66
2022/07/10 02:31:27;;;;;;;;;;;13.80;99.90;;;;;;5053868;28;19909;-67
2022/07/10 02:33:53;;;;;;;;;;;13.90;99.90;;;;;;5036225;28;20363;-66
2022/07/10 02:36:18;;;;;;;;;;;13.80;99.90;;;;;;5054084;28;19920;-66
2022/07/10 02:38:44;;;;;;;;;;;13.80;99.90;;;;;;5054034;28;19963;-66
2022/07/10 02:41:09;;;;;;;;;;;13.80;99.90;;;;;;5053735;28;19909;-66
2022/07/10 02:43:35;;;;;;;;;;;13.80;99.90;;;;;;5053754;28;19915;-67
2022/07/10 02:46:01;;;;;;;;;;;13.70;99.90;;;;;;5053626;28;19909;-66
2022/07/10 02:48:27;;;;;;;;;;;13.80;99.90;;;;;;5053589;28;19915;-66
2022/07/10 02:50:52;;;;;;;;;;;13.80;99.90;;;;;;5053381;28;19920;-67
2022/07/10 02:53:18;;;;;;;;;;;13.80;99.90;;;;;;5053583;28;19913;-67
2022/07/10 02:55:43;;;;;;;;;;;13.80;99.90;;;;;;5053548;28;19913;-67
2022/07/10 02:58:09;;;;;;;;;;;13.70;99.90;;;;;;5053548;28;19919;-66
2022/07/10 03:00:43;;;;;;;;;;;13.70;99.90;;;;;;5053592;28;19909;-66
2022/07/10 03:03:09;;;;;;;;;;;13.80;99.90;;;;;;5035624;28;19980;-66
2022/07/10 03:05:34;;;;;;;;;;;13.80;99.90;;;;;;5053736;28;20260;-66
2022/07/10 03:08:00;;;;;;;;;;;13.70;99.90;;;;;;5053413;28;19909;-66
2022/07/10 03:10:25;;;;;;;;;;;13.70;99.90;;;;;;5053592;28;19916;-67
2022/07/10 03:12:51;;;;;;;;;;;13.70;99.90;;;;;;5053665;28;19909;-66
2022/07/10 03:15:17;;;;;;;;;;;13.70;99.90;;;;;;5053374;28;19948;-66
2022/07/10 03:17:42;;;;;;;;;;;13.70;99.90;;;;;;5053364;28;19909;-67
2022/07/10 03:20:08;;;;;;;;;;;13.80;99.90;;;;;;5053309;28;19916;-66
2022/07/10 03:22:34;;;;;;;;;;;13.80;99.90;;;;;;5055534;28;19909;-66
2022/07/10 03:25:00;;;;;;;;;;;13.70;99.90;;;;;;5057361;28;19932;-66
2022/07/10 03:27:25;;;;;;;;;;;13.70;99.90;;;;;;5057370;28;19909;-67
2022/07/10 03:29:51;;;;;;;;;;;13.70;99.90;;;;;;5057657;28;19928;-66
2022/07/10 03:32:16;;;;;;;;;;;13.70;99.90;;;;;;5057471;28;19909;-66
2022/07/10 03:34:42;;;;;;;;;;;13.70;99.90;;;;;;5057437;28;19912;-66
2022/07/10 03:37:08;;;;;;;;;;;13.70;99.90;;;;;;5057440;28;20306;-66
2022/07/10 03:39:33;;;;;;;;;;;13.80;99.90;;;;;;5057062;28;19952;-66
2022/07/10 03:41:59;;;;;;;;;;;13.80;99.90;;;;;;5057044;28;19913;-66
2022/07/10 03:44:24;;;;;;;;;;;13.80;99.90;;;;;;5057241;28;19908;-66
2022/07/10 03:46:50;;;;;;;;;;;13.80;99.90;;;;;;5057174;28;19909;-66
2022/07/10 03:49:15;;;;;;;;;;;13.80;99.90;;;;;;5056623;28;20286;-66
2022/07/10 03:51:41;;;;;;;;;;;13.80;99.90;;;;;;5057134;28;19909;-66
2022/07/10 03:54:06;;;;;;;;;;;13.80;99.90;;;;;;5056819;28;19915;-66
2022/07/10 03:59:17;;;;;;;;;;;13.70;99.90;;;;;;5056506;28;19909;-66
2022/07/10 04:01:43;;;;;;;;;;;13.70;99.90;;;;;;5056650;28;19999;-66
2022/07/10 04:04:08;;;;;;;;;;;13.70;99.90;;;;;;5056656;28;19913;-66
2022/07/10 04:06:34;;;;;;;;;;;13.70;99.90;;;;;;5056584;28;20385;-66
2022/07/10 04:08:59;;;;;;;;;;;13.70;99.90;;;;;;5056526;28;20287;-66
2022/07/10 04:11:25;;;;;;;;;;;13.70;99.90;;;;;;5056513;28;19920;-66
2022/07/10 04:13:51;;;;;;;;;;;13.70;99.90;;;;;;5056722;28;19909;-66
2022/07/10 04:16:16;;;;;;;;;;;13.70;99.90;;;;;;5056402;28;19909;-66
2022/07/10 04:18:42;;;;;;;;;;;13.70;99.90;;;;;;5056389;28;20366;-67
2022/07/10 04:21:07;;;;;;;;;;;13.70;99.90;;;;;;5056569;28;20409;-66
2022/07/10 04:23:33;;;;;;;;;;;13.70;99.90;;;;;;5056550;28;20363;-67
2022/07/10 04:25:59;;;;;;;;;;;13.70;99.90;;;;;;5056507;28;20311;-66
2022/07/10 04:28:24;;;;;;;;;;;13.70;99.90;;;;;;5056475;28;20309;-67
2022/07/10 04:30:50;;;;;;;;;;;13.70;99.90;;;;;;5038218;28;19964;-67
2022/07/10 04:33:15;;;;;;;;;;;13.70;99.90;;;;;;5055703;28;19913;-66
2022/07/10 04:35:41;;;;;;;;;;;13.70;99.90;;;;;;5055835;28;20346;-67
2022/07/10 04:38:06;;;;;;;;;;;13.70;99.90;;;;;;5056005;28;19909;-66
2022/07/10 04:40:32;;;;;;;;;;;13.80;99.90;;;;;;5038189;28;20377;-66
2022/07/10 04:42:57;;;;;;;;;;;13.70;99.90;;;;;;5055901;28;19916;-66
2022/07/10 04:45:23;;;;;;;;;;;13.80;99.90;;;;;;5056134;28;19931;-66
2022/07/10 04:47:48;;;;;;;;;;;13.70;99.90;;;;;;5055815;28;19913;-66
2022/07/10 04:50:14;;;;;;;;;;;13.70;99.90;;;;;;5055480;28;19927;-66
2022/07/10 04:52:39;;;;;;;;;;;13.80;99.90;;;;;;5055744;28;19913;-67
2022/07/10 04:55:05;;;;;;;;;;;13.70;99.90;;;;;;5055942;28;19959;-67
2022/07/10 04:57:30;;;;;;;;;;;13.70;99.90;;;;;;5055725;28;19908;-67
2022/07/10 04:59:56;;;;;;;;;;;13.80;99.90;;;;;;5037823;28;19916;-67
2022/07/10 05:02:22;;;;;;;;;;;13.80;99.90;;;;;;5055558;28;20000;-66
2022/07/10 05:04:47;;;;;;;;;;;13.90;99.90;;;;;;5037668;28;19908;-67
2022/07/10 05:07:14;;;;;;;;;;;13.90;99.90;;;;;;5055443;28;19909;-67
2022/07/10 05:09:40;;;;;;;;;;;14.00;99.90;;;;;;5055289;28;19962;-66
2022/07/10 05:12:05;;;;;;;;;;;14.10;99.90;;;;;;5055631;28;20366;-67
2022/07/10 05:14:31;;;;;;;;;;;14.10;99.90;;;;;;5055535;28;20327;-67
2022/07/10 05:16:56;;;;;;;;;;;14.20;99.90;;;;;;5055493;28;19913;-67
2022/07/10 05:19:22;;;;;;;;;;;14.30;99.90;;;;;;5055591;28;19916;-66
2022/07/10 05:21:48;;;;;;;;;;;14.40;99.90;;;;;;5055480;28;19951;-67
2022/07/10 05:24:13;;;;;;;;;;;14.40;99.90;;;;;;5055374;28;19909;-67
2022/07/10 05:26:38;;;;;;;;;;;14.50;99.90;;;;;;5055336;28;19936;-67
2022/07/10 05:29:04;;;;;;;;;;;14.70;99.90;;;;;;5055048;28;19963;-67
2022/07/10 05:31:30;;;;;;;;;;;14.60;99.90;;;;;;5054956;28;20367;-67
2022/07/10 05:33:55;;;;;;;;;;;14.70;99.90;;;;;;5055234;28;19951;-67
2022/07/10 05:36:20;;;;;;;;;;;14.70;99.90;;;;;;5054905;28;19909;-67
2022/07/10 05:38:46;;;;;;;;;;;14.70;99.90;;;;;;5054848;28;19909;-67
2022/07/10 05:41:12;;;;;;;;;;;14.70;99.90;;;;;;5054789;28;19909;-67
2022/07/10 05:43:38;;;;;;;;;;;14.80;99.90;;;;;;5054743;28;19912;-67
2022/07/10 05:46:03;;;;;;;;;;;14.80;99.90;;;;;;5054948;28;19909;-67
2022/07/10 05:48:29;;;;;;;;;;;14.70;99.90;;;;;;5054940;28;19920;-67
2022/07/10 05:50:55;;;;;;;;;;;14.80;99.90;;;;;;5054387;28;20012;-67
2022/07/10 05:53:20;;;;;;;;;;;15.10;99.90;;;;;;5054789;28;19912;-67
2022/07/10 05:55:47;;;;;;;;;;;15.20;99.90;;;;;;5054531;28;19909;-67
2022/07/10 05:58:13;;;;;;;;;;;15.30;99.90;;;;;;5036857;28;19909;-66
2022/07/10 06:00:39;;;;;;;;;;;15.30;99.90;;;;;;5054425;28;19932;-67
2022/07/10 06:03:05;;;;;;;;;;;15.40;99.90;;;;;;5054683;28;20014;-66
2022/07/10 06:05:31;;;;;;;;;;;15.40;99.90;;;;;;5054417;28;19909;-67
2022/07/10 06:07:56;;;;;;;;;;;15.50;99.90;;;;;;5054402;28;20334;-67
2022/07/10 06:10:22;;;;;;;;;;;15.70;99.90;;;;;;5054157;28;19919;-67
2022/07/10 06:12:47;;;;;;;;;;;15.80;99.90;;;;;;5054205;28;20396;-67
2022/07/10 06:15:13;;;;;;;;;;;15.90;99.90;;;;;;5054169;28;19909;-67
2022/07/10 06:17:38;;;;;;;;;;;15.90;99.90;;;;;;5054435;28;19909;-67
2022/07/10 06:20:04;;;;;;;;;;;15.80;99.90;;;;;;5054383;28;19916;-67
2022/07/10 06:22:30;;;;;;;;;;;15.80;99.90;;;;;;5054274;28;19912;-66
2022/07/10 06:24:56;;;;;;;;;;;15.90;99.90;;;;;;5054268;28;19909;-67
2022/07/10 06:27:22;;;;;;;;;;;16.10;99.90;;;;;;5054241;28;19908;-67
2022/07/10 06:29:47;;;;;;;;;;;16.40;99.90;;;;;;5053861;28;20128;-67
2022/07/10 06:32:13;;;;;;;;;;;16.50;99.90;;;;;;5054134;28;20013;-67
2022/07/10 06:34:38;;;;;;;;;;;16.70;99.90;;;;;;5053849;28;20097;-67
2022/07/10 06:37:04;;;;;;;;;;;16.90;99.90;;;;;;5035952;28;20042;-67
2022/07/10 06:39:33;;;;;;;;;;;16.90;99.90;;;;;;5054054;28;19919;-67
2022/07/10 06:42:00;;;;;;;;;;;17.30;99.90;;;;;;5053994;28;20394;-67
2022/07/10 06:44:25;;;;;;;;;;;18.10;99.90;;;;;;5036044;28;19912;-67
2022/07/10 06:49:36;;;;;;;;;;;18.60;99.90;;;;;;5053175;28;19924;-67
2022/07/10 06:52:02;;;;;;;;;;;20.10;99.90;;;;;;5053879;28;19959;-67
2022/07/10 06:54:27;;;;;;;;;;;21.50;99.90;;;;;;5035849;28;19909;-67
2022/07/10 06:56:53;;;;;;;;;;;21.50;99.90;;;;;;5053132;28;19909;-67
2022/07/10 06:59:19;;;;;;;;;;;21.50;99.90;;;;;;5035699;28;19917;-67
2022/07/10 07:01:44;;;;;;;;;;;20.90;99.90;;;;;;5053466;28;20286;-67
2022/07/10 07:04:10;;;;;;;;;;;20.10;99.90;;;;;;5053478;28;20050;-67
2022/07/10 07:06:35;;;;;;;;;;;18.90;99.90;;;;;;5035763;28;19909;-67
2022/07/10 07:09:01;;;;;;;;;;;18.60;99.90;;;;;;5053674;28;19991;-67
2022/07/10 07:11:26;;;;;;;;;;;18.80;99.90;;;;;;5053346;28;19935;-67
2022/07/10 07:13:51;;;;;;;;;;;18.80;99.90;;;;;;5053591;28;20386;-67
2022/07/10 07:16:19;;;;;;;;;;;18.90;99.90;;;;;;5053305;28;19908;-67
2022/07/10 07:18:52;;;;;;;;;;;18.80;99.90;;;;;;5053329;28;19909;-67
2022/07/10 07:24:04;;;;;;;;;;;18.40;99.90;;;;;;5053096;28;20382;-67
2022/07/10 07:26:29;;;;;;;;;;;18.20;99.90;;;;;;5053308;28;19913;-67
2022/07/10 07:28:55;;;;;;;;;;;18.40;99.90;;;;;;5053533;28;19915;-67
2022/07/10 07:31:20;;;;;;;;;;;18.30;99.90;;;;;;5053393;28;19912;-67
2022/07/10 07:33:46;;;;;;;;;;;18.30;99.90;;;;;;5053222;28;19915;-67
2022/07/10 07:36:11;;;;;;;;;;;18.10;99.90;;;;;;5053444;28;19909;-66
2022/07/10 07:38:36;;;;;;;;;;;17.90;99.90;;;;;;5053169;28;19947;-67
2022/07/10 07:41:02;;;;;;;;;;;17.90;99.90;;;;;;5053388;28;20279;-67
2022/07/10 07:43:27;;;;;;;;;;;17.80;99.90;;;;;;5053421;28;19974;-67
2022/07/10 07:45:53;;;;;;;;;;;17.70;99.90;;;;;;5053065;28;20335;-67
2022/07/10 07:48:18;;;;;;;;;;;17.60;99.90;;;;;;5052981;28;19912;-67
2022/07/10 07:50:44;;;;;;;;;;;17.80;99.90;;;;;;5052746;28;19924;-67
2022/07/10 07:53:09;;;;;;;;;;;17.70;99.90;;;;;;5053249;28;19964;-67
2022/07/10 07:55:35;;;;;;;;;;;17.40;99.90;;;;;;5053234;28;19966;-67
2022/07/10 07:58:02;;;;;;;;;;;17.10;99.90;;;;;;5053184;28;20365;-67
2022/07/10 08:00:28;;;;;;;;;;;17.10;99.90;;;;;;5053206;28;20363;-67
2022/07/10 08:02:55;;;;;;;;;;;17.10;99.90;;;;;;5052842;28;20374;-67
2022/07/10 08:05:21;;;;;;;;;;;17.10;99.90;;;;;;5052825;28;19909;-67
2022/07/10 08:07:51;;;;;;;;;;;16.80;99.90;;;;;;5052883;28;19909;-67
2022/07/10 08:10:17;;;;;;;;;;;16.50;99.90;;;;;;5055589;28;19916;-67
2022/07/10 08:12:43;;;;;;;;;;;16.50;99.90;;;;;;5056495;28;19908;-67
2022/07/10 08:15:09;;;;;;;;;;;16.40;99.90;;;;;;5056705;28;19916;-67
2022/07/10 08:17:35;;;;;;;;;;;16.30;99.90;;;;;;5056648;28;19909;-67
2022/07/10 08:20:01;;;;;;;;;;;16.00;99.90;;;;;;5056596;28;19909;-67
2022/07/10 08:22:27;;;;;;;;;;;16.10;99.90;;;;;;5056584;28;19916;-67
2022/07/10 08:24:52;;;;;;;;;;;16.70;99.90;;;;;;5056540;28;19909;-67
2022/07/10 08:27:18;;;;;;;;;;;16.90;99.90;;;;;;5056184;28;20363;-67
2022/07/10 08:29:43;;;;;;;;;;;16.90;99.90;;;;;;5056082;28;19943;-67
2022/07/10 08:32:10;;;;;;;;;;;16.80;99.90;;;;;;5056368;28;19959;-67
2022/07/10 08:34:36;;;;;;;;;;;16.60;99.90;;;;;;5056076;28;20031;-68
2022/07/10 08:37:02;;;;;;;;;;;16.50;99.90;;;;;;5056344;28;19940;-67
2022/07/10 08:39:27;;;;;;;;;;;16.60;99.90;;;;;;5056007;28;19916;-67
2022/07/10 08:41:53;;;;;;;;;;;16.60;99.90;;;;;;5055900;28;19908;-67
2022/07/10 08:44:19;;;;;;;;;;;16.70;99.90;;;;;;5056184;28;20359;-67
2022/07/10 08:46:45;;;;;;;;;;;16.60;99.90;;;;;;5056110;28;19913;-68
2022/07/10 08:49:11;;;;;;;;;;;16.60;99.90;;;;;;5055687;28;19917;-67
2022/07/10 08:51:39;;;;;;;;;;;16.50;99.90;;;;;;5055896;28;19956;-67
2022/07/10 08:54:06;;;;;;;;;;;16.50;99.90;;;;;;5055766;28;19915;-67
2022/07/10 08:56:32;;;;;;;;;;;16.40;99.90;;;;;;5055917;28;19909;-67
2022/07/10 08:58:58;;;;;;;;;;;16.30;99.90;;;;;;5055660;28;19909;-67
2022/07/10 09:01:24;;;;;;;;;;;16.40;99.90;;;;;;5055578;28;20286;-67
2022/07/10 09:03:50;;;;;;;;;;;16.40;99.90;;;;;;5055573;28;19912;-67
2022/07/10 09:06:16;;;;;;;;;;;16.60;99.90;;;;;;5055761;28;19916;-67
2022/07/10 09:08:57;;;;;;;;;;;16.90;99.90;;;;;;5055718;28;19909;-67
2022/07/10 09:11:23;;;;;;;;;;;16.80;99.90;;;;;;5055307;28;19927;-67
2022/07/10 09:13:50;;;;;;;;;;;16.70;99.90;;;;;;5055607;28;19915;-67
2022/07/10 09:16:23;;;;;;;;;;;16.60;99.90;;;;;;5055603;28;19909;-67
2022/07/10 09:18:48;;;;;;;;;;;16.60;99.90;;;;;;5055566;28;20279;-67
2022/07/10 09:21:14;;;;;;;;;;;16.70;99.90;;;;;;5054875;28;20000;-67
2022/07/10 09:23:39;;;;;;;;;;;16.50;99.90;;;;;;5055397;28;20019;-67
2022/07/10 09:26:05;;;;;;;;;;;16.50;99.90;;;;;;5055108;28;20279;-67
2022/07/10 09:28:30;;;;;;;;;;;16.20;99.90;;;;;;5055073;28;19916;-67
2022/07/10 09:30:56;;;;;;;;;;;16.20;99.90;;;;;;5055225;28;19917;-67
2022/07/10 09:33:25;;;;;;;;;;;16.20;99.90;;;;;;5054945;28;19955;-67
2022/07/10 09:36:08;;;;;;;;;;;16.10;99.90;;;;;;5054957;28;20375;-67
2022/07/10 09:38:51;;;;;;;;;;;16.10;99.90;;;;;;5055126;28;19916;-67
2022/07/10 09:41:18;;;;;;;;;;;16.10;99.90;;;;;;5055098;28;19909;-67
2022/07/10 09:43:46;;;;;;;;;;;16.20;99.90;;;;;;5055054;28;20311;-67
2022/07/10 09:46:12;;;;;;;;;;;16.10;99.90;;;;;;5054992;28;20306;-67
2022/07/10 09:48:37;;;;;;;;;;;15.90;99.90;;;;;;5036741;28;19915;-67
2022/07/10 09:51:06;;;;;;;;;;;15.90;99.90;;;;;;5054570;28;19920;-66
2022/07/10 09:53:32;;;;;;;;;;;15.80;99.90;;;;;;5054864;28;20370;-66
2022/07/10 09:55:59;;;;;;;;;;;15.60;99.90;;;;;;5054589;28;19916;-66
2022/07/10 09:58:26;;;;;;;;;;;15.90;99.90;;;;;;5054489;28;20395;-66
2022/07/10 10:00:52;;;;;;;;;;;16.20;99.90;;;;;;5054683;28;19912;-66
2022/07/10 10:03:19;;;;;;;;;;;16.60;99.90;;;;;;5054418;28;19908;-66
2022/07/10 10:06:05;;;;;;;;;;;16.90;99.90;;;;;;5036471;28;19913;-66
2022/07/10 10:08:34;;;;;;;;;;;16.80;99.90;;;;;;5054184;28;19909;-66
2022/07/10 10:11:00;;;;;;;;;;;16.70;99.90;;;;;;5054122;28;19928;-66
2022/07/10 10:13:27;;;;;;;;;;;16.70;99.90;;;;;;5054082;28;19915;-67
2022/07/10 10:15:53;;;;;;;;;;;16.80;99.90;;;;;;5054380;28;20272;-67
2022/07/10 10:18:20;;;;;;;;;;;16.50;99.90;;;;;;5054175;28;20007;-67
2022/07/10 10:20:46;;;;;;;;;;;16.50;99.90;;;;;;5054374;28;20011;-67
2022/07/10 10:23:14;;;;;;;;;;;16.50;99.90;;;;;;5054031;28;19956;-67
2022/07/10 10:25:39;;;;;;;;;;;16.30;99.90;;;;;;5054066;28;19952;-67
2022/07/10 10:28:06;;;;;;;;;;;16.30;99.90;;;;;;5054213;28;19955;-67
2022/07/10 10:30:32;;;;;;;;;;;16.40;99.90;;;;;;5053942;28;19916;-67
2022/07/10 10:32:59;;;;;;;;;;;16.40;99.90;;;;;;5053208;28;19909;-67
2022/07/10 10:35:46;;;;;;;;;;;16.40;99.90;;;;;;5054148;28;19909;-67
2022/07/10 10:38:12;;;;;;;;;;;16.50;99.90;;;;;;5053739;28;19908;-67
2022/07/10 10:40:38;;;;;;;;;;;16.80;99.90;;;;;;5053963;28;20381;-66
2022/07/10 10:43:23;;;;;;;;;;;16.70;99.90;;;;;;5035920;28;19909;-67
2022/07/10 10:45:49;;;;;;;;;;;16.90;99.90;;;;;;5053596;28;20011;-67
2022/07/10 10:48:16;;;;;;;;;;;16.70;99.90;;;;;;5053619;28;19909;-67
2022/07/10 10:50:45;;;;;;;;;;;16.90;99.90;;;;;;5053372;28;19924;-67
2022/07/10 10:53:14;;;;;;;;;;;16.80;99.90;;;;;;5053179;28;21551;-67
2022/07/10 10:55:41;;;;;;;;;;;16.60;99.90;;;;;;5053544;28;20282;-67
2022/07/10 10:58:24;;;;;;;;;;;16.80;99.90;;;;;;5035849;28;19923;-67
2022/07/10 11:00:49;;;;;;;;;;;16.90;99.90;;;;;;5053510;28;19963;-67
2022/07/10 11:03:16;;;;;;;;;;;17.10;99.90;;;;;;5053482;28;19908;-67
2022/07/10 11:05:42;;;;;;;;;;;17.00;99.90;;;;;;5053724;28;19967;-67
2022/07/10 11:08:08;;;;;;;;;;;17.10;99.90;;;;;;5053679;28;19947;-67
2022/07/10 11:10:36;;;;;;;;;;;16.80;99.90;;;;;;5053347;28;20339;-67
2022/07/10 11:13:17;;;;;;;;;;;16.80;99.90;;;;;;5053375;28;19912;-67
2022/07/10 11:15:44;;;;;;;;;;;16.70;99.90;;;;;;5053592;28;19913;-67
2022/07/10 11:18:10;;;;;;;;;;;16.70;99.90;;;;;;5053541;28;19952;-67
2022/07/10 11:20:37;;;;;;;;;;;16.50;99.90;;;;;;5053290;28;19936;-67
2022/07/10 11:23:23;;;;;;;;;;;16.40;99.90;;;;;;5053300;28;19908;-66
2022/07/10 11:26:00;;;;;;;;;;;16.20;99.90;;;;;;5053190;28;19909;-67
2022/07/10 11:28:28;;;;;;;;;;;16.50;99.90;;;;;;5053460;28;19913;-67
2022/07/10 11:30:54;;;;;;;;;;;16.80;99.90;;;;;;5053084;28;20287;-67
2022/07/10 11:33:20;;;;;;;;;;;16.90;99.90;;;;;;5053195;28;19913;-67
2022/07/10 11:35:47;;;;;;;;;;;16.80;99.90;;;;;;5053390;28;19913;-66
2022/07/10 11:38:12;;;;;;;;;;;16.40;99.90;;;;;;5053208;28;19952;-66
2022/07/10 11:40:38;;;;;;;;;;;16.20;99.90;;;;;;5053336;28;19959;-66
2022/07/10 11:43:06;;;;;;;;;;;16.20;99.90;;;;;;5036690;28;19979;-67
2022/07/10 11:45:33;;;;;;;;;;;16.10;99.90;;;;;;5057279;28;19971;-67
2022/07/10 11:47:59;;;;;;;;;;;16.20;99.90;;;;;;5057259;28;19959;-66
2022/07/10 11:50:25;;;;;;;;;;;16.30;99.90;;;;;;5056714;28;20382;-66
2022/07/10 11:52:51;;;;;;;;;;;16.20;99.90;;;;;;5039183;28;20462;-66
2022/07/10 11:55:17;;;;;;;;;;;16.20;99.90;;;;;;5057094;28;19949;-66
2022/07/10 11:57:48;;;;;;;;;;;16.40;99.90;;;;;;5057101;28;19916;-66
2022/07/10 12:00:23;;;;;;;;;;;16.50;99.90;;;;;;5057017;28;19909;-66
2022/07/10 12:02:49;;;;;;;;;;;16.40;99.90;;;;;;5056958;28;19908;-66
2022/07/10 12:05:31;;;;;;;;;;;16.40;99.90;;;;;;5056646;28;19909;-66
2022/07/10 12:07:57;;;;;;;;;;;16.20;99.90;;;;;;5056869;28;19916;-66
2022/07/10 12:10:25;;;;;;;;;;;16.00;99.90;;;;;;5056749;28;19912;-66
2022/07/10 12:12:51;;;;;;;;;;;16.20;99.90;;;;;;5056539;28;19909;-66
2022/07/10 12:15:32;;;;;;;;;;;16.20;99.90;;;;;;5056746;28;19915;-66
2022/07/10 12:17:58;;;;;;;;;;;16.10;99.90;;;;;;5056418;28;19909;-66
2022/07/10 12:20:23;;;;;;;;;;;16.10;99.90;;;;;;5038588;28;20256;-66
2022/07/10 12:22:49;;;;;;;;;;;16.10;99.90;;;;;;5056357;28;19909;-66
2022/07/10 12:25:14;;;;;;;;;;;16.10;99.90;;;;;;5056239;28;19908;-66
2022/07/10 12:27:41;;;;;;;;;;;16.20;99.90;;;;;;5056239;28;19909;-66
2022/07/10 12:30:06;;;;;;;;;;;16.40;99.90;;;;;;5056378;28;20371;-66
2022/07/10 12:32:32;;;;;;;;;;;16.40;99.90;;;;;;5056257;28;19915;-66
2022/07/10 12:34:58;;;;;;;;;;;16.70;99.90;;;;;;5056107;28;19962;-66
2022/07/10 12:37:24;;;;;;;;;;;16.80;99.90;;;;;;5056317;28;20383;-66
2022/07/10 12:39:53;;;;;;;;;;;17.00;99.90;;;;;;5056301;28;19916;-67
2022/07/10 12:42:26;;;;;;;;;;;17.20;99.90;;;;;;5056230;28;19916;-66
2022/07/10 12:44:51;;;;;;;;;;;16.90;99.90;;;;;;5056137;28;19919;-67
2022/07/10 12:47:19;;;;;;;;;;;17.10;99.90;;;;;;5056114;28;19908;-67
2022/07/10 12:49:49;;;;;;;;;;;17.50;99.90;;;;;;5055513;28;19932;-67
2022/07/10 12:52:23;;;;;;;;;;;17.60;99.90;;;;;;5055767;28;19909;-67
2022/07/10 12:54:49;;;;;;;;;;;18.00;99.90;;;;;;5055065;28;19916;-67
2022/07/10 12:57:14;;;;;;;;;;;17.80;99.90;;;;;;5055943;28;19913;-67
2022/07/10 12:59:41;;;;;;;;;;;17.50;99.90;;;;;;5037895;28;20003;-67
2022/07/10 13:02:17;;;;;;;;;;;17.40;99.90;;;;;;5037771;28;19962;-67
2022/07/10 13:04:51;;;;;;;;;;;17.50;99.90;;;;;;5055781;28;19909;-67
2022/07/10 13:07:17;;;;;;;;;;;17.70;99.90;;;;;;5055783;28;20379;-66
2022/07/10 13:09:44;;;;;;;;;;;17.60;99.90;;;;;;5055420;28;19915;-66
2022/07/10 13:12:09;;;;;;;;;;;17.60;99.90;;;;;;5055664;28;20363;-67
2022/07/10 13:14:35;;;;;;;;;;;17.50;99.90;;;;;;5055619;28;19908;-67
2022/07/10 13:17:00;;;;;;;;;;;17.40;99.90;;;;;;5055371;28;20315;-67
2022/07/10 13:19:26;;;;;;;;;;;17.30;99.90;;;;;;5055215;28;19909;-66
2022/07/10 13:21:51;;;;;;;;;;;17.60;99.90;;;;;;5055162;28;19983;-67
2022/07/10 13:24:17;;;;;;;;;;;17.80;99.90;;;;;;5055083;28;20325;-67
2022/07/10 13:26:43;;;;;;;;;;;18.10;99.90;;;;;;5054962;28;19909;-67
2022/07/10 13:29:08;;;;;;;;;;;18.20;99.90;;;;;;5055050;28;19915;-67
2022/07/10 13:31:33;;;;;;;;;;;18.50;99.90;;;;;;5054924;28;19967;-67
2022/07/10 13:33:59;;;;;;;;;;;18.70;99.90;;;;;;5037116;28;19908;-67
2022/07/10 13:36:24;;;;;;;;;;;18.30;99.90;;;;;;5055111;28;19908;-67
2022/07/10 13:38:52;;;;;;;;;;;18.10;99.90;;;;;;5055122;28;19909;-67
2022/07/10 13:41:17;;;;;;;;;;;18.40;99.90;;;;;;5055132;28;19908;-67
2022/07/10 13:43:43;;;;;;;;;;;18.50;99.90;;;;;;5055101;28;20380;-67
2022/07/10 13:46:09;;;;;;;;;;;18.50;99.90;;;;;;5054803;28;19909;-67
2022/07/10 13:48:34;;;;;;;;;;;18.50;99.90;;;;;;5054799;28;20328;-66
2022/07/10 13:51:00;;;;;;;;;;;18.40;99.90;;;;;;5054602;28;19952;-67
2022/07/10 13:53:26;;;;;;;;;;;18.30;99.90;;;;;;5054901;28;19991;-67
2022/07/10 13:55:52;;;;;;;;;;;18.20;99.90;;;;;;5054591;28;20389;-67
2022/07/10 13:58:17;;;;;;;;;;;17.70;99.90;;;;;;5054788;28;19909;-66
2022/07/10 14:00:43;;;;;;;;;;;17.30;99.90;;;;;;5036697;28;19959;-67
2022/07/10 14:03:09;;;;;;;;;;;17.10;99.90;;;;;;5054481;28;19944;-67
2022/07/10 14:05:35;;;;;;;;;;;17.00;99.90;;;;;;5054272;28;20394;-66
2022/07/10 14:08:00;;;;;;;;;;;16.90;99.90;;;;;;5053777;28;19909;-67
2022/07/10 14:10:26;;;;;;;;;;;17.00;99.90;;;;;;5054515;28;20372;-66
2022/07/10 14:12:53;;;;;;;;;;;17.00;99.90;;;;;;5054551;28;19913;-67
2022/07/10 14:15:18;;;;;;;;;;;17.20;99.90;;;;;;5054204;28;19959;-67
2022/07/10 14:17:44;;;;;;;;;;;17.50;99.90;;;;;;5054199;28;19912;-67
2022/07/10 14:20:10;;;;;;;;;;;17.80;99.90;;;;;;5054418;28;20004;-67